Time;durP1;ratioP1;P1;durP2;ratioP2;P2;SDS_P1;SDS_P2;PMS_P1;PMS_P2;Temp;Humidity;BMP_temperature;BMP_pressure;BME280_temperature;BME280_humidity;BME280_pressure;Samples;Min_cycle;Max_cycle;Signal;HPM_P1;HPM_P2
2024/01/03 00:01:35;;;;;;;1.50;0.50;;;;;;;10.87;100.00;96428.78;5212592;22;20563;-84
2024/01/03 00:03:38;;;;;;;1.50;0.60;;;;;;;10.90;100.00;96433.69;5187306;22;20582;-84
2024/01/03 00:05:43;;;;;;;1.60;0.63;;;;;;;10.84;100.00;96418.63;5213945;22;21066;-84
2024/01/03 00:07:48;;;;;;;1.45;0.55;;;;;;;10.80;100.00;96432.91;5240984;22;20577;-84
2024/01/03 00:09:55;;;;;;;1.57;0.73;;;;;;;10.83;100.00;96440.44;5211459;22;20698;-83
2024/01/03 00:12:00;;;;;;;1.20;0.50;;;;;;;10.83;100.00;96448.28;5213207;22;20575;-83
2024/01/03 00:14:14;;;;;;;1.00;0.40;;;;;;;10.80;100.00;96433.72;5213290;22;20579;-84
2024/01/03 00:16:19;;;;;;;1.50;0.53;;;;;;;10.81;100.00;96435.38;5240074;22;20565;-85
2024/01/03 00:18:30;;;;;;;1.20;0.50;;;;;;;10.80;100.00;96445.16;5213800;22;20579;-84
2024/01/03 00:20:34;;;;;;;1.47;0.43;;;;;;;10.79;100.00;96443.50;5240797;22;21139;-84
2024/01/03 00:22:37;;;;;;;1.20;0.50;;;;;;;10.77;100.00;96438.44;5213523;22;20582;-84
2024/01/03 00:24:45;;;;;;;1.50;0.60;;;;;;;10.79;100.00;96443.50;5212998;22;20573;-84
2024/01/03 00:26:48;;;;;;;1.27;0.53;;;;;;;10.77;100.00;96453.25;5214536;22;20996;-84
2024/01/03 00:28:52;;;;;;;1.40;0.53;;;;;;;10.81;100.00;96452.81;5187635;22;20576;-84
2024/01/03 00:30:57;;;;;;;1.40;0.50;;;;;;;10.74;100.00;96448.34;5213864;22;21109;-84
2024/01/03 00:33:00;;;;;;;1.40;0.60;;;;;;;10.79;100.00;96440.88;5240498;22;20607;-83
2024/01/03 00:35:10;;;;;;;1.52;0.60;;;;;;;10.85;100.00;96439.34;5189159;22;20579;-84
2024/01/03 00:37:22;;;;;;;1.27;0.40;;;;;;;10.85;100.00;96431.53;5214130;22;20211;-84
2024/01/03 00:39:26;;;;;;;1.80;0.70;;;;;;;10.92;100.00;96450.00;5212608;22;20578;-84
2024/01/03 00:41:30;;;;;;;1.30;0.50;;;;;;;10.94;100.00;96442.84;5188424;22;20572;-85
2024/01/03 00:43:33;;;;;;;1.20;0.50;;;;;;;10.93;98.92;96456.84;5240628;22;20197;-83
2024/01/03 00:45:36;;;;;;;1.53;0.67;;;;;;;10.89;100.00;96438.06;5213612;22;20640;-84
2024/01/03 00:47:40;;;;;;;1.67;0.70;;;;;;;10.84;99.88;96437.69;5213470;22;20995;-84
2024/01/03 00:49:44;;;;;;;1.20;0.40;;;;;;;10.83;100.00;96425.63;5211900;22;20580;-83
2024/01/03 00:51:49;;;;;;;1.47;0.50;;;;;;;10.80;100.00;96419.06;5188221;22;20998;-84
2024/01/03 00:53:52;;;;;;;1.03;0.40;;;;;;;10.79;100.00;96415.63;5212323;22;21187;-84
2024/01/03 00:55:56;;;;;;;2.03;0.50;;;;;;;10.83;99.40;96409.97;5213222;22;20571;-84
2024/01/03 00:57:58;;;;;;;1.77;0.57;;;;;;;10.84;100.00;96432.47;5212525;22;20578;-84
2024/01/03 01:00:02;;;;;;;1.87;0.50;;;;;;;10.86;99.95;96430.53;5212655;22;20825;-86
2024/01/03 01:02:05;;;;;;;1.63;0.50;;;;;;;10.86;100.00;96411.47;5213113;22;20960;-85
2024/01/03 01:04:10;;;;;;;1.40;0.60;;;;;;;10.85;98.54;96438.50;5212487;22;20586;-83
2024/01/03 01:06:13;;;;;;;2.20;0.60;;;;;;;10.84;98.80;96453.34;5213225;22;20986;-84
2024/01/03 01:08:16;;;;;;;1.50;0.47;;;;;;;10.82;99.40;96444.84;5186616;22;20583;-85
2024/01/03 01:10:22;;;;;;;2.03;0.77;;;;;;;10.79;98.28;96444.31;5211961;22;20606;-83
2024/01/03 01:12:26;;;;;;;2.50;0.60;;;;;;;10.78;97.11;96449.66;5212388;22;20612;-87
2024/01/03 01:14:29;;;;;;;2.40;0.60;;;;;;;10.77;95.60;96445.44;5238201;22;20700;-87
2024/01/03 01:16:31;;;;;;;2.63;0.70;;;;;;;10.79;96.81;96462.56;5213035;22;20618;-87
2024/01/03 01:18:34;;;;;;;2.10;0.70;;;;;;;10.80;94.20;96457.19;5212583;22;20605;-87
2024/01/03 01:20:39;;;;;;;4.63;0.80;;;;;;;10.82;93.67;96465.72;5238112;22;20604;-87
2024/01/03 01:22:42;;;;;;;3.87;1.00;;;;;;;10.91;93.52;96469.22;5211352;22;20583;-87
2024/01/03 01:24:45;;;;;;;3.00;1.10;;;;;;;10.92;92.74;96465.66;5212745;22;20582;-87
2024/01/03 01:26:47;;;;;;;1.60;0.80;;;;;;;10.94;92.80;96466.31;5187276;22;21122;-86
2024/01/03 01:28:50;;;;;;;3.87;0.80;;;;;;;11.02;91.41;96472.47;5213293;22;21170;-87
2024/01/03 01:30:54;;;;;;;3.00;0.70;;;;;;;11.07;91.71;96475.44;5186288;22;20941;-87
2024/01/03 01:32:57;;;;;;;3.00;0.80;;;;;;;11.12;91.61;96470.59;5212295;22;20577;-87
2024/01/03 01:35:00;;;;;;;2.40;0.77;;;;;;;11.17;90.25;96463.16;5212980;22;20644;-86
2024/01/03 01:37:04;;;;;;;2.67;0.90;;;;;;;11.26;90.69;96471.88;5213228;22;20589;-87
2024/01/03 01:39:07;;;;;;;3.00;0.80;;;;;;;11.27;88.97;96473.53;5237855;22;20568;-88
2024/01/03 01:41:10;;;;;;;2.17;0.87;;;;;;;11.30;89.52;96479.25;5210823;22;20982;-87
2024/01/03 01:43:14;;;;;;;7.90;0.70;;;;;;;11.29;89.38;96472.41;5238338;22;21198;-87
2024/01/03 01:45:17;;;;;;;2.33;0.67;;;;;;;11.31;90.46;96468.66;5211928;22;20551;-87
2024/01/03 01:47:20;;;;;;;6.40;0.80;;;;;;;11.30;88.25;96476.66;5212858;22;20567;-87
2024/01/03 01:49:23;;;;;;;4.80;1.20;;;;;;;11.28;89.86;96470.75;5239475;22;20639;-87
2024/01/03 01:51:26;;;;;;;1.50;0.70;;;;;;;11.27;88.75;96461.28;5212792;22;20624;-87
2024/01/03 01:53:30;;;;;;;3.10;0.70;;;;;;;11.27;89.04;96469.94;5211693;22;20598;-87
2024/01/03 01:55:35;;;;;;;3.73;1.03;;;;;;;11.22;89.20;96471.34;5211744;22;20590;-87
2024/01/03 01:57:40;;;;;;;2.70;0.93;;;;;;;11.24;90.60;96466.78;5186877;22;21355;-86
2024/01/03 01:59:44;;;;;;;2.10;0.73;;;;;;;11.24;90.36;96471.19;5212208;22;20639;-87
2024/01/03 02:01:47;;;;;;;2.63;0.60;;;;;;;11.22;89.23;96465.31;5211546;22;20641;-87
2024/01/03 02:03:51;;;;;;;2.10;0.73;;;;;;;11.19;89.64;96470.84;5238117;22;20569;-87
2024/01/03 02:05:55;;;;;;;3.30;0.70;;;;;;;11.18;90.63;96474.41;5211704;22;20566;-87
2024/01/03 02:07:59;;;;;;;3.10;0.80;;;;;;;11.14;91.54;96476.50;5212876;22;20596;-87
2024/01/03 02:10:04;;;;;;;2.40;0.80;;;;;;;11.10;90.89;96485.56;5212181;22;20582;-87
2024/01/03 02:12:08;;;;;;;2.17;0.70;;;;;;;11.07;90.80;96482.44;5186378;22;20579;-87
2024/01/03 02:14:11;;;;;;;3.00;0.63;;;;;;;11.02;92.65;96490.72;5212678;22;20660;-87
2024/01/03 02:16:14;;;;;;;2.17;0.90;;;;;;;11.02;92.85;96492.47;5210859;22;20622;-87
2024/01/03 02:18:19;;;;;;;1.60;0.60;;;;;;;10.98;92.77;96489.34;5212141;22;21656;-87
2024/01/03 02:20:24;;;;;;;1.90;0.70;;;;;;;10.97;92.86;96492.91;5186961;22;20958;-87
2024/01/03 02:22:31;;;;;;;2.93;0.87;;;;;;;10.95;92.55;96483.63;5186503;22;20195;-84
2024/01/03 02:24:34;;;;;;;1.67;0.60;;;;;;;10.96;93.56;96483.47;5186959;22;20622;-84
2024/01/03 02:26:36;;;;;;;3.87;0.80;;;;;;;10.94;92.64;96471.53;5186585;22;21471;-84
2024/01/03 02:28:40;;;;;;;2.80;0.90;;;;;;;10.91;92.98;96472.63;5185973;22;20619;-84
2024/01/03 02:30:44;;;;;;;2.63;1.10;;;;;;;10.86;92.31;96479.28;5239549;22;20581;-84
2024/01/03 02:32:48;;;;;;;2.03;0.60;;;;;;;10.87;92.55;96483.53;5211689;22;20585;-84
2024/01/03 02:34:51;;;;;;;2.63;1.00;;;;;;;10.83;93.75;96483.00;5239862;22;20617;-84
2024/01/03 02:36:55;;;;;;;3.03;0.70;;;;;;;10.84;92.67;96483.84;5240442;22;20565;-84
2024/01/03 02:39:00;;;;;;;2.53;0.80;;;;;;;10.78;93.17;96486.19;5238977;22;20569;-85
2024/01/03 02:41:03;;;;;;;1.63;0.73;;;;;;;10.74;94.16;96477.03;5241092;22;20542;-84
2024/01/03 02:43:06;;;;;;;1.43;0.70;;;;;;;10.71;93.67;96487.75;5213688;22;20904;-84
2024/01/03 02:45:08;;;;;;;1.50;0.70;;;;;;;10.68;94.70;96480.22;5239376;22;20561;-84
2024/01/03 02:47:12;;;;;;;2.13;0.67;;;;;;;10.66;93.74;96487.34;5214170;22;21164;-84
2024/01/03 02:49:15;;;;;;;2.65;0.70;;;;;;;10.58;93.48;96493.25;5188479;22;20572;-84
2024/01/03 02:51:19;;;;;;;4.30;0.60;;;;;;;10.53;94.85;96482.47;5242092;22;20633;-84
2024/01/03 02:53:22;;;;;;;1.90;0.73;;;;;;;10.47;94.60;96482.22;5186763;22;20997;-85
2024/01/03 02:55:26;;;;;;;1.50;0.70;;;;;;;10.45;94.33;96481.56;5187707;22;20667;-84
2024/01/03 02:57:30;;;;;;;1.40;0.60;;;;;;;10.46;94.64;96480.56;5214392;22;20993;-84
2024/01/03 02:59:34;;;;;;;1.83;0.50;;;;;;;10.46;95.08;96494.44;5213904;22;20200;-85
2024/01/03 03:01:37;;;;;;;1.35;0.50;;;;;;;10.50;94.10;96492.34;5188264;22;21201;-84
2024/01/03 03:03:41;;;;;;;1.57;0.50;;;;;;;10.47;93.96;96497.84;5213380;22;20263;-83
2024/01/03 03:05:44;;;;;;;1.60;0.63;;;;;;;10.50;94.50;96493.16;5213846;22;20554;-84
2024/01/03 03:07:47;;;;;;;2.10;0.73;;;;;;;10.48;94.19;96484.69;5188702;22;20601;-85
2024/01/03 03:09:50;;;;;;;2.13;0.50;;;;;;;10.48;94.17;96489.09;5213197;22;20259;-84
2024/01/03 03:11:55;;;;;;;2.03;0.80;;;;;;;10.47;94.38;96490.03;5238987;22;20261;-84
2024/01/03 03:13:58;;;;;;;1.37;0.43;;;;;;;10.42;93.15;96494.88;5239134;22;20175;-84
2024/01/03 03:16:01;;;;;;;1.27;0.50;;;;;;;10.37;94.64;96484.88;5213332;22;20585;-84
2024/01/03 03:18:06;;;;;;;2.65;0.60;;;;;;;10.35;94.00;96494.59;5213716;22;20566;-84
2024/01/03 03:20:11;;;;;;;1.30;0.50;;;;;;;10.31;93.66;96499.41;5214323;22;20180;-84
2024/01/03 03:22:14;;;;;;;1.40;0.43;;;;;;;10.28;93.66;96499.69;5188250;22;20180;-84
2024/01/03 03:24:19;;;;;;;2.33;0.50;;;;;;;10.24;94.37;96491.34;5187525;22;20266;-84
2024/01/03 03:26:23;;;;;;;1.60;0.55;;;;;;;10.26;94.28;96494.63;5241499;22;20221;-84
2024/01/03 03:28:27;;;;;;;1.40;0.50;;;;;;;10.26;94.20;96493.81;5239168;22;20172;-85
2024/01/03 03:30:30;;;;;;;1.10;0.40;;;;;;;10.28;94.21;96481.47;5212782;22;20575;-87
2024/01/03 03:32:33;;;;;;;1.40;0.40;;;;;;;10.24;93.47;96483.53;5213189;22;20172;-86
2024/01/03 03:34:37;;;;;;;4.18;0.40;;;;;;;10.16;94.97;96478.19;5240391;22;20720;-86
2024/01/03 03:36:40;;;;;;;1.13;0.40;;;;;;;10.20;95.14;96478.75;5212933;22;20183;-87
2024/01/03 03:38:43;;;;;;;1.15;0.40;;;;;;;10.16;95.35;96478.19;5212670;22;20176;-87
2024/01/03 03:40:45;;;;;;;1.10;0.40;;;;;;;10.14;95.95;96480.13;5213036;22;20184;-87
2024/01/03 03:42:48;;;;;;;1.35;0.40;;;;;;;10.16;95.89;96480.81;5240150;22;20697;-87
2024/01/03 03:44:54;;;;;;;1.10;0.30;;;;;;;10.13;96.09;96478.50;5188120;22;20506;-86
2024/01/03 03:46:58;;;;;;;1.37;0.50;;;;;;;10.11;96.13;96483.00;5211998;22;20180;-86
2024/01/03 03:49:01;;;;;;;1.77;0.43;;;;;;;10.09;96.80;96482.34;5212783;22;20566;-87
2024/01/03 03:51:05;;;;;;;1.75;0.50;;;;;;;10.05;97.37;96482.78;5213993;22;21424;-87
2024/01/03 03:53:10;;;;;;;1.13;0.40;;;;;;;10.07;97.22;96489.50;5212833;22;20168;-86
2024/01/03 03:55:14;;;;;;;1.20;0.40;;;;;;;10.01;98.13;96487.44;5187310;22;20200;-87
2024/01/03 03:57:17;;;;;;;1.20;0.40;;;;;;;9.97;99.00;96488.69;5213841;22;20279;-86
2024/01/03 03:59:23;;;;;;;1.70;0.50;;;;;;;9.95;98.93;96484.56;5213750;22;20535;-86
2024/01/03 04:01:27;;;;;;;1.80;0.40;;;;;;;9.96;99.49;96486.22;5240675;22;20199;-86
2024/01/03 04:03:30;;;;;;;1.65;0.50;;;;;;;9.97;99.21;96480.88;5187266;22;20565;-86
2024/01/03 04:05:32;;;;;;;1.58;0.50;;;;;;;10.02;98.50;96488.25;5213268;22;20211;-87
2024/01/03 04:07:38;;;;;;;1.50;0.60;;;;;;;10.04;98.98;96483.72;5213169;22;20206;-87
2024/01/03 04:09:43;;;;;;;2.08;0.60;;;;;;;9.96;99.89;96489.63;5186901;22;20629;-87
2024/01/03 04:11:47;;;;;;;1.50;0.52;;;;;;;9.97;99.81;96493.88;5212835;22;20234;-86
2024/01/03 04:13:50;;;;;;;1.48;0.55;;;;;;;9.97;99.74;96490.47;5212848;22;20255;-86
2024/01/03 04:15:53;;;;;;;1.50;0.60;;;;;;;9.91;100.00;96481.41;5211848;22;20219;-87
2024/01/03 04:17:58;;;;;;;1.97;0.60;;;;;;;9.90;100.00;96494.56;5187444;22;20705;-86
2024/01/03 04:20:01;;;;;;;1.80;0.65;;;;;;;9.92;100.00;96493.47;5213178;22;20586;-86
2024/01/03 04:22:06;;;;;;;1.45;0.60;;;;;;;9.94;100.00;96501.16;5186992;22;20223;-86
2024/01/03 04:24:09;;;;;;;1.65;0.70;;;;;;;9.91;100.00;96502.22;5212267;22;20176;-86
2024/01/03 04:26:12;;;;;;;2.13;0.65;;;;;;;9.95;100.00;96502.78;5212620;22;20511;-86
2024/01/03 04:28:14;;;;;;;1.60;0.70;;;;;;;9.90;99.97;96500.56;5238642;22;20181;-87
2024/01/03 04:30:17;;;;;;;3.15;1.45;;;;;;;9.90;99.31;96503.19;5212413;22;20643;-86
2024/01/03 04:32:20;;;;;;;2.07;0.90;;;;;;;9.88;99.77;96499.91;5240192;22;20827;-86
2024/01/03 04:34:25;;;;;;;1.20;0.55;;;;;;;9.87;99.56;96498.25;5213152;22;20571;-86
2024/01/03 04:36:28;;;;;;;1.52;0.80;;;;;;;9.86;99.19;96509.63;5239560;22;20286;-86
2024/01/03 04:38:31;;;;;;;2.87;1.00;;;;;;;9.88;98.67;96492.09;5238699;22;20182;-86
2024/01/03 04:40:35;;;;;;;1.50;0.50;;;;;;;9.84;98.67;96497.72;5212198;22;21277;-86
2024/01/03 04:42:38;;;;;;;3.83;1.02;;;;;;;9.84;97.99;96502.09;5210393;22;20179;-86
2024/01/03 04:44:41;;;;;;;2.40;0.80;;;;;;;9.83;97.88;96508.25;5211559;22;20172;-86
2024/01/03 04:46:44;;;;;;;2.47;0.80;;;;;;;9.83;96.98;96500.44;5212161;22;20178;-86
2024/01/03 04:48:47;;;;;;;1.77;0.60;;;;;;;9.81;95.59;96510.19;5211357;22;20171;-86
2024/01/03 04:50:52;;;;;;;2.55;0.68;;;;;;;9.83;94.87;96503.06;5209813;22;20259;-86
2024/01/03 04:52:55;;;;;;;3.35;1.10;;;;;;;9.87;95.29;96511.25;5236754;22;20175;-86
2024/01/03 04:54:57;;;;;;;1.67;0.80;;;;;;;9.92;95.13;96516.91;5238452;22;20206;-86
2024/01/03 04:57:00;;;;;;;5.20;0.90;;;;;;;9.93;94.24;96508.13;5238568;22;20742;-86
2024/01/03 04:59:04;;;;;;;1.77;0.80;;;;;;;10.00;93.94;96521.44;5211569;22;20579;-86
2024/01/03 05:01:06;;;;;;;3.40;0.73;;;;;;;10.03;94.04;96508.13;5236094;22;20178;-86
2024/01/03 05:03:11;;;;;;;2.70;0.70;;;;;;;10.08;93.01;96518.94;5237587;22;20585;-86
2024/01/03 05:05:14;;;;;;;2.00;0.73;;;;;;;10.12;92.13;96504.69;5212785;22;20181;-86
2024/01/03 05:07:19;;;;;;;2.83;0.80;;;;;;;10.11;92.33;96509.06;5237651;22;20937;-86
2024/01/03 05:09:23;;;;;;;2.95;0.80;;;;;;;10.12;91.85;96517.72;5210535;22;20578;-86
2024/01/03 05:11:26;;;;;;;3.63;0.90;;;;;;;10.18;91.93;96517.97;5240162;22;20175;-86
2024/01/03 05:13:30;;;;;;;2.58;0.80;;;;;;;10.21;91.24;96520.28;5185861;22;20564;-86
2024/01/03 05:15:33;;;;;;;4.38;1.00;;;;;;;10.28;89.44;96520.53;5211387;22;20230;-86
2024/01/03 05:17:36;;;;;;;2.95;1.05;;;;;;;10.29;89.55;96517.00;5212198;22;20271;-86
2024/01/03 05:19:39;;;;;;;3.20;0.90;;;;;;;10.33;88.71;96521.78;5235722;22;20203;-86
2024/01/03 05:21:42;;;;;;;5.70;1.00;;;;;;;10.38;89.79;96524.78;5185459;22;20611;-86
2024/01/03 05:23:47;;;;;;;1.90;0.97;;;;;;;10.46;88.73;96537.91;5211079;22;21216;-86
2024/01/03 05:25:50;;;;;;;3.73;1.20;;;;;;;10.52;86.75;96532.13;5186583;22;20617;-86
2024/01/03 05:27:53;;;;;;;2.27;0.90;;;;;;;10.64;87.25;96534.41;5186556;22;20578;-87
2024/01/03 05:29:56;;;;;;;4.30;1.13;;;;;;;10.66;84.71;96536.88;5186344;22;21001;-86
2024/01/03 05:32:01;;;;;;;4.80;0.90;;;;;;;10.71;85.79;96547.72;5212219;22;20617;-86
2024/01/03 05:34:06;;;;;;;3.30;0.90;;;;;;;10.77;86.23;96542.72;5185699;22;20611;-86
2024/01/03 05:36:09;;;;;;;5.97;1.10;;;;;;;10.79;84.56;96539.97;5186388;22;20600;-86
2024/01/03 05:38:12;;;;;;;3.50;1.00;;;;;;;10.86;85.20;96534.03;5185536;22;20976;-86
2024/01/03 05:40:18;;;;;;;4.80;1.00;;;;;;;10.85;84.85;96533.22;5239314;22;21131;-86
2024/01/03 05:42:23;;;;;;;3.88;1.35;;;;;;;10.90;85.31;96536.22;5236108;22;21049;-85
2024/01/03 05:44:26;;;;;;;3.67;1.00;;;;;;;10.94;85.96;96540.16;5239302;22;20225;-86
2024/01/03 05:46:29;;;;;;;4.13;1.00;;;;;;;10.97;85.08;96545.09;5186550;22;20578;-86
2024/01/03 05:48:32;;;;;;;2.97;0.97;;;;;;;11.03;85.35;96548.91;5238083;22;20573;-87
2024/01/03 05:50:35;;;;;;;4.17;1.30;;;;;;;11.07;84.93;96551.09;5212566;22;20647;-84
2024/01/03 05:52:39;;;;;;;4.40;1.00;;;;;;;11.13;85.93;96553.13;5238952;22;20618;-84
2024/01/03 05:54:42;;;;;;;4.00;1.13;;;;;;;11.13;85.24;96553.13;5237319;22;20600;-84
2024/01/03 05:56:46;;;;;;;3.23;0.77;;;;;;;11.16;83.78;96558.03;5238471;22;20688;-85
2024/01/03 05:58:50;;;;;;;4.57;0.90;;;;;;;11.18;85.20;96556.09;5211685;22;20581;-84
2024/01/03 06:00:54;;;;;;;5.67;1.30;;;;;;;11.14;84.45;96564.38;5186162;22;20649;-84
2024/01/03 06:02:57;;;;;;;3.47;1.03;;;;;;;11.07;84.27;96564.13;5236685;22;21100;-85
2024/01/03 06:05:00;;;;;;;4.90;1.10;;;;;;;11.05;85.76;96563.47;5210908;22;20636;-83
2024/01/03 06:07:03;;;;;;;2.57;0.90;;;;;;;11.03;85.71;96554.94;5211903;22;21101;-83
2024/01/03 06:09:05;;;;;;;3.47;1.20;;;;;;;11.00;84.01;96557.84;5211183;22;21237;-85
2024/01/03 06:11:09;;;;;;;4.13;1.40;;;;;;;10.92;85.06;96554.34;5211885;22;20582;-83
2024/01/03 06:13:15;;;;;;;5.03;1.70;;;;;;;10.91;84.49;96556.09;5239044;22;20585;-84
2024/01/03 06:15:18;;;;;;;4.90;1.47;;;;;;;10.87;84.79;96564.38;5212514;22;21112;-84
2024/01/03 06:17:21;;;;;;;3.23;1.27;;;;;;;10.86;85.58;96566.16;5241369;22;20597;-84
2024/01/03 06:19:26;;;;;;;4.83;1.53;;;;;;;10.85;85.06;96563.69;5239646;22;20569;-83
2024/01/03 06:21:30;;;;;;;4.43;1.30;;;;;;;10.79;84.50;96569.47;5187917;22;20830;-83
2024/01/03 06:23:32;;;;;;;4.13;0.90;;;;;;;10.77;85.84;96560.97;5212300;22;21057;-83
2024/01/03 06:25:37;;;;;;;2.60;1.10;;;;;;;10.75;85.13;96562.06;5239278;22;20577;-83
2024/01/03 06:27:40;;;;;;;4.07;1.13;;;;;;;10.75;85.60;96568.13;5213451;22;20570;-84
2024/01/03 06:29:44;;;;;;;3.33;1.40;;;;;;;10.77;86.02;96568.81;5212637;22;20613;-83
2024/01/03 06:31:47;;;;;;;2.87;0.90;;;;;;;10.78;85.10;96560.03;5238365;22;20668;-84
2024/01/03 06:33:50;;;;;;;5.63;1.27;;;;;;;10.80;84.26;96558.91;5240348;22;20581;-83
2024/01/03 06:35:53;;;;;;;4.40;1.13;;;;;;;10.79;84.88;96558.22;5213510;22;20586;-84
2024/01/03 06:37:57;;;;;;;2.43;1.30;;;;;;;10.79;85.68;96561.66;5240631;22;20576;-84
2024/01/03 06:39:59;;;;;;;4.67;1.43;;;;;;;10.78;84.80;96561.78;5239737;22;20650;-83
2024/01/03 06:42:03;;;;;;;3.20;1.20;;;;;;;10.75;86.18;96556.88;5240363;22;20565;-85
2024/01/03 06:44:06;;;;;;;2.70;0.87;;;;;;;10.73;84.59;96557.00;5237206;22;20644;-83
2024/01/03 06:46:11;;;;;;;4.33;1.13;;;;;;;10.72;85.98;96571.03;5212776;22;20803;-83
2024/01/03 06:48:14;;;;;;;4.37;1.30;;;;;;;10.71;86.20;96569.38;5212031;22;20574;-84
2024/01/03 06:50:18;;;;;;;3.57;1.00;;;;;;;10.71;85.96;96563.34;5213349;22;20574;-84
2024/01/03 06:52:21;;;;;;;4.70;0.90;;;;;;;10.72;86.23;96562.38;5186984;22;21082;-83
2024/01/03 06:54:24;;;;;;;2.67;0.87;;;;;;;10.68;87.20;96561.03;5212757;22;21005;-83
2024/01/03 06:56:27;;;;;;;3.00;1.00;;;;;;;10.70;87.04;96561.69;5239490;22;21390;-83
2024/01/03 06:58:31;;;;;;;1.87;0.90;;;;;;;10.70;87.18;96561.69;5240858;22;20546;-83
2024/01/03 07:00:34;;;;;;;2.70;1.10;;;;;;;10.65;87.23;96554.31;5213477;22;20584;-86
2024/01/03 07:02:39;;;;;;;2.30;0.90;;;;;;;10.69;86.42;96560.03;5186651;22;20595;-86
2024/01/03 07:04:42;;;;;;;2.20;0.70;;;;;;;10.70;87.73;96556.47;5241330;22;20569;-86
2024/01/03 07:06:46;;;;;;;2.35;0.80;;;;;;;10.72;88.24;96559.75;5213893;22;20574;-86
2024/01/03 07:08:49;;;;;;;1.97;0.83;;;;;;;10.72;88.56;96559.75;5186015;22;20177;-86
2024/01/03 07:10:52;;;;;;;3.27;1.00;;;;;;;10.75;87.70;96564.69;5186542;22;21195;-86
2024/01/03 07:12:55;;;;;;;3.30;0.90;;;;;;;10.76;88.33;96566.34;5211062;22;20643;-86
2024/01/03 07:14:58;;;;;;;6.27;1.03;;;;;;;10.76;87.36;96561.13;5239097;22;20617;-86
2024/01/03 07:17:01;;;;;;;2.30;0.73;;;;;;;10.70;88.25;96566.91;5240702;22;20607;-86
2024/01/03 07:19:06;;;;;;;6.70;1.10;;;;;;;10.71;88.58;96556.34;5212432;22;20705;-86
2024/01/03 07:21:09;;;;;;;3.93;0.80;;;;;;;10.73;88.81;96569.22;5238842;22;20589;-85
2024/01/03 07:23:12;;;;;;;3.17;1.20;;;;;;;10.75;88.95;96564.69;5185889;22;21067;-86
2024/01/03 07:25:16;;;;;;;2.80;0.70;;;;;;;10.75;89.46;96573.34;5239862;22;21740;-85
2024/01/03 07:27:19;;;;;;;3.17;1.00;;;;;;;10.78;88.22;96572.22;5213038;22;20574;-86
2024/01/03 07:29:22;;;;;;;4.23;1.00;;;;;;;10.79;88.24;96577.28;5212235;22;21120;-86
2024/01/03 07:31:26;;;;;;;6.27;1.53;;;;;;;10.83;88.16;96568.22;5211762;22;20576;-86
2024/01/03 07:33:28;;;;;;;2.87;0.87;;;;;;;10.85;89.08;96569.75;5239423;22;20566;-85
2024/01/03 07:35:33;;;;;;;2.40;0.70;;;;;;;10.83;88.61;96565.63;5240868;22;20589;-85
2024/01/03 07:37:36;;;;;;;2.33;0.90;;;;;;;10.86;89.00;96565.34;5238607;22;20597;-86
2024/01/03 07:39:39;;;;;;;3.67;0.80;;;;;;;10.89;87.83;96568.47;5240203;22;20972;-86
2024/01/03 07:41:42;;;;;;;2.90;1.33;;;;;;;10.88;87.17;96572.06;5186821;22;20613;-85
2024/01/03 07:43:46;;;;;;;1.83;0.70;;;;;;;10.94;88.38;96571.47;5212433;22;20624;-86
2024/01/03 07:45:49;;;;;;;2.20;0.73;;;;;;;10.99;86.88;96576.25;5213548;22;20580;-86
2024/01/03 07:47:51;;;;;;;3.90;0.90;;;;;;;11.00;86.26;96568.28;5240258;22;20546;-86
2024/01/03 07:49:55;;;;;;;1.50;0.70;;;;;;;11.01;88.10;96566.50;5212446;22;20621;-86
2024/01/03 07:51:59;;;;;;;2.20;0.70;;;;;;;11.00;87.66;96570.88;5240604;22;20561;-85
2024/01/03 07:54:03;;;;;;;3.10;0.90;;;;;;;10.98;86.22;96562.41;5187240;22;20617;-86
2024/01/03 07:56:07;;;;;;;3.50;1.00;;;;;;;11.07;87.36;96569.34;5239262;22;20561;-86
2024/01/03 07:58:10;;;;;;;4.03;1.07;;;;;;;11.02;87.95;96573.34;5187751;22;20614;-86
2024/01/03 08:00:15;;;;;;;2.97;1.00;;;;;;;11.00;88.43;96570.88;5212736;22;20582;-85
2024/01/03 08:02:18;;;;;;;3.30;0.80;;;;;;;10.96;87.97;96566.94;5187981;22;20606;-92
2024/01/03 08:04:20;;;;;;;4.03;1.57;;;;;;;11.03;89.37;96567.19;5188121;22;20561;-92
2024/01/03 08:06:23;;;;;;;3.07;0.97;;;;;;;11.05;89.01;96579.13;5214864;22;20628;-91
2024/01/03 08:08:28;;;;;;;4.10;0.90;;;;;;;11.02;87.01;96568.13;5214630;22;20575;-91
2024/01/03 08:10:31;;;;;;;3.40;0.80;;;;;;;11.05;88.18;96567.84;5241520;22;20542;-93
2024/01/03 08:12:33;;;;;;;2.00;1.00;;;;;;;11.04;87.23;96576.66;5213677;22;20566;-89
2024/01/03 08:14:36;;;;;;;10.83;2.50;;;;;;;11.03;86.94;96570.59;5189066;22;20579;-90
2024/01/03 08:16:39;;;;;;;3.53;1.10;;;;;;;11.04;87.65;96574.84;5241217;22;20597;-89
2024/01/03 08:18:44;;;;;;;6.67;1.30;;;;;;;11.10;88.36;96571.66;5213055;22;20657;-89
2024/01/03 08:20:47;;;;;;;3.00;1.20;;;;;;;11.12;86.79;96561.91;5240374;22;20601;-90
2024/01/03 08:22:51;;;;;;;2.43;0.90;;;;;;;11.16;88.08;96560.66;5239195;22;20566;-90
2024/01/03 08:24:54;;;;;;;2.70;1.00;;;;;;;11.17;86.89;96554.47;5240005;22;20600;-88
2024/01/03 08:26:58;;;;;;;2.33;0.90;;;;;;;11.20;87.03;96564.63;5187668;22;20666;-90
2024/01/03 08:29:01;;;;;;;2.90;0.90;;;;;;;11.20;86.80;96551.59;5211964;22;20662;-91
2024/01/03 08:31:04;;;;;;;2.90;0.90;;;;;;;11.26;87.77;96558.81;5239469;22;20604;-92
2024/01/03 08:33:08;;;;;;;4.80;1.20;;;;;;;11.28;87.76;96554.28;5239091;22;20561;-93
2024/01/03 08:35:11;;;;;;;3.07;0.97;;;;;;;11.25;87.90;96556.38;5241223;22;21441;-90
2024/01/03 08:37:14;;;;;;;4.50;1.10;;;;;;;11.20;88.00;96548.97;5239308;22;20624;-89
2024/01/03 08:39:17;;;;;;;2.63;1.10;;;;;;;11.19;88.05;96555.16;5240143;22;20622;-90
2024/01/03 08:41:22;;;;;;;1.80;0.90;;;;;;;11.20;88.70;96551.59;5241461;22;20573;-92
2024/01/03 08:43:46;;;;;;;5.50;1.90;;;;;;;11.25;88.03;96546.72;5214639;22;20614;-93
2024/01/03 08:45:49;;;;;;;3.07;1.00;;;;;;;11.25;87.37;96549.34;5239523;22;21232;-91
2024/01/03 08:47:52;;;;;;;5.93;1.17;;;;;;;11.20;87.62;96538.53;5188307;22;20575;-92
2024/01/03 08:50:09;;;;;;;2.90;1.00;;;;;;;11.18;88.32;96544.84;5240034;22;20669;-91
2024/01/03 08:52:12;;;;;;;3.10;1.20;;;;;;;11.24;88.30;96536.44;5214782;22;20689;-92
2024/01/03 08:54:16;;;;;;;2.80;1.20;;;;;;;11.23;88.43;96540.00;5212494;22;20578;-92
2024/01/03 08:56:19;;;;;;;1.90;0.80;;;;;;;11.23;88.46;96551.28;5212048;22;20633;-91
2024/01/03 08:58:24;;;;;;;3.33;0.80;;;;;;;11.24;88.11;96536.44;5214328;22;20590;-91
2024/01/03 09:00:26;;;;;;;3.03;1.00;;;;;;;11.24;89.79;96547.69;5212975;22;20574;-92
2024/01/03 09:02:29;;;;;;;4.23;0.90;;;;;;;11.26;88.59;96539.72;5212791;22;20677;-90
2024/01/03 09:04:31;;;;;;;3.97;0.80;;;;;;;11.34;87.94;96549.28;5213485;22;20582;-88
2024/01/03 09:06:35;;;;;;;4.70;1.20;;;;;;;11.32;86.92;96546.00;5235652;22;20990;-90
2024/01/03 09:08:39;;;;;;;5.13;2.30;;;;;;;11.36;88.25;96546.53;5238406;22;21288;-90
2024/01/03 09:10:42;;;;;;;3.70;1.50;;;;;;;11.36;89.11;96544.72;5211878;22;21168;-90
2024/01/03 09:12:45;;;;;;;4.50;0.90;;;;;;;11.32;89.49;96546.00;5237593;22;20602;-88
2024/01/03 09:14:50;;;;;;;1.60;0.87;;;;;;;11.28;88.06;96554.28;5237811;22;20565;-91
2024/01/03 09:16:53;;;;;;;2.77;0.90;;;;;;;11.27;90.28;96557.03;5213134;22;20582;-91
2024/01/03 09:18:57;;;;;;;3.73;0.90;;;;;;;11.23;90.49;96559.13;5237251;22;20964;-85
2024/01/03 09:21:03;;;;;;;3.37;1.00;;;;;;;11.20;88.52;96556.81;5186763;22;20651;-84
2024/01/03 09:23:06;;;;;;;2.43;0.90;;;;;;;11.19;88.91;96555.16;5236590;22;20554;-89
2024/01/03 09:25:09;;;;;;;1.70;0.70;;;;;;;11.15;91.35;96566.84;5212639;22;20582;-87
2024/01/03 09:27:13;;;;;;;1.97;0.87;;;;;;;11.20;89.96;96571.63;5213246;22;20596;-86
2024/01/03 09:29:16;;;;;;;2.17;0.80;;;;;;;11.20;89.97;96566.41;5239747;22;20550;-86
2024/01/03 09:31:20;;;;;;;2.47;0.73;;;;;;;11.19;91.00;96578.63;5186484;22;20662;-86
2024/01/03 09:33:24;;;;;;;5.03;0.90;;;;;;;11.18;90.56;96576.97;5212315;22;20578;-86
2024/01/03 09:35:28;;;;;;;5.67;0.83;;;;;;;11.25;90.87;96591.09;5187619;22;20584;-85
2024/01/03 09:37:31;;;;;;;2.37;1.10;;;;;;;11.26;92.05;96579.69;5212637;22;20551;-84
2024/01/03 09:39:34;;;;;;;4.33;0.90;;;;;;;11.27;90.50;96589.16;5186447;22;20631;-85
2024/01/03 09:41:38;;;;;;;2.80;0.80;;;;;;;11.26;92.20;96586.69;5238363;22;20557;-83
2024/01/03 09:43:42;;;;;;;3.10;0.80;;;;;;;11.26;90.73;96571.88;5210360;22;20575;-87